Time;durP1;ratioP1;P1;durP2;ratioP2;P2;SDS_P1;SDS_P2;PMS_P1;PMS_P2;Temp;Humidity;BMP_temperature;BMP_pressure;BME280_temperature;BME280_humidity;BME280_pressure;Samples;Min_cycle;Max_cycle;Signal;HPM_P1;HPM_P2
2024/01/22 00:01:58;;;;;;;29.27;26.58;;;7.40;99.90;;;;;;5062217;28;20045;-91
2024/01/22 00:04:24;;;;;;;21.92;19.90;;;7.30;99.90;;;;;;5071364;28;20044;-94
2024/01/22 00:06:52;;;;;;;23.33;21.55;;;7.30;99.90;;;;;;5036434;28;20052;-89
2024/01/22 00:09:18;;;;;;;33.25;30.48;;;7.30;99.90;;;;;;5042740;28;20044;-93
2024/01/22 00:11:44;;;;;;;59.22;53.03;;;7.40;99.90;;;;;;5033851;28;20041;-92
2024/01/22 00:14:10;;;;;;;17.23;15.68;;;7.40;99.90;;;;;;5036898;28;20044;-90
2024/01/22 00:16:39;;;;;;;21.65;19.60;;;7.40;99.90;;;;;;5039417;28;20076;-94
2024/01/22 00:19:06;;;;;;;21.38;19.08;;;7.40;99.90;;;;;;5052187;28;20049;-92
2024/01/22 00:21:32;;;;;;;23.70;21.67;;;7.50;99.90;;;;;;5066302;28;20445;-91
2024/01/22 00:23:58;;;;;;;22.60;20.58;;;7.40;99.90;;;;;;5051519;28;20128;-90
2024/01/22 00:26:23;;;;;;;33.88;31.02;;;7.40;99.90;;;;;;5055245;28;20646;-91
2024/01/22 00:28:49;;;;;;;42.88;39.20;;;7.40;99.90;;;;;;5038356;28;20488;-92
2024/01/22 00:31:20;;;;;;;195.15;103.18;;;7.40;99.90;;;;;;5035822;28;20040;-91
2024/01/22 00:33:46;;;;;;;31.50;28.63;;;7.50;99.90;;;;;;5075666;28;20051;-90
2024/01/22 00:36:19;;;;;;;17.77;15.95;;;7.50;99.90;;;;;;5035948;28;20044;-91
2024/01/22 00:38:45;;;;;;;17.10;15.45;;;7.50;99.90;;;;;;5053932;28;20048;-93
2024/01/22 00:41:11;;;;;;;19.20;17.38;;;7.60;99.90;;;;;;5036088;28;20097;-93
2024/01/22 00:43:37;;;;;;;17.38;15.77;;;7.60;99.90;;;;;;5055740;28;20052;-91
2024/01/22 00:46:03;;;;;;;52.08;46.70;;;7.60;99.90;;;;;;5029663;28;20109;-91
2024/01/22 00:48:32;;;;;;;25.70;23.75;;;7.70;99.90;;;;;;5054762;28;20037;-88
2024/01/22 00:50:57;;;;;;;19.52;16.65;;;7.70;99.90;;;;;;5071510;28;20036;-91
2024/01/22 00:53:23;;;;;;;22.35;20.30;;;7.70;99.90;;;;;;5028462;28;20045;-92
2024/01/22 00:55:49;;;;;;;42.35;38.65;;;7.80;99.90;;;;;;5047435;28;20523;-90
2024/01/22 00:58:15;;;;;;;18.15;16.27;;;7.70;99.90;;;;;;5035672;28;20041;-92
2024/01/22 01:00:41;;;;;;;18.85;17.25;;;7.80;99.90;;;;;;5051859;28;20032;-91
2024/01/22 01:03:07;;;;;;;22.63;20.70;;;7.80;99.90;;;;;;5049561;28;20066;-90
2024/01/22 01:05:33;;;;;;;141.95;76.68;;;7.80;99.90;;;;;;5040992;28;20043;-91
2024/01/22 01:07:59;;;;;;;20.50;18.80;;;7.90;99.90;;;;;;5053486;28;20040;-92
2024/01/22 01:10:24;;;;;;;23.73;21.85;;;8.00;99.90;;;;;;5072039;28;20072;-94
2024/01/22 01:12:53;;;;;;;16.75;15.48;;;8.00;99.90;;;;;;5069315;28;20089;-89
2024/01/22 01:15:20;;;;;;;17.73;16.08;;;8.00;99.90;;;;;;5070012;28;20032;-90
2024/01/22 01:17:46;;;;;;;58.38;52.40;;;8.00;99.90;;;;;;5038434;28;20043;-91
2024/01/22 01:20:12;;;;;;;27.40;25.20;;;8.10;99.90;;;;;;5016944;28;20072;-93
2024/01/22 01:22:40;;;;;;;20.60;18.80;;;8.10;99.90;;;;;;5029986;28;20052;-93
2024/01/22 01:25:05;;;;;;;20.48;18.77;;;8.10;99.90;;;;;;5048765;28;20047;-91
2024/01/22 01:27:31;;;;;;;17.15;15.52;;;8.10;99.90;;;;;;5036083;28;20040;-92
2024/01/22 01:29:57;;;;;;;24.10;22.10;;;8.20;99.90;;;;;;5036295;28;20115;-90
2024/01/22 01:32:22;;;;;;;19.55;17.80;;;8.20;99.90;;;;;;5050682;28;20029;-94
2024/01/22 01:34:51;;;;;;;83.43;76.25;;;8.30;99.90;;;;;;5050668;28;20041;-91
2024/01/22 01:37:16;;;;;;;18.92;17.30;;;8.30;99.90;;;;;;5034853;28;20381;-92
2024/01/22 01:39:45;;;;;;;19.38;17.40;;;8.40;99.90;;;;;;5024001;28;20597;-94
2024/01/22 01:42:14;;;;;;;35.67;33.05;;;8.40;99.90;;;;;;5031659;28;20044;-89
2024/01/22 01:44:39;;;;;;;18.42;16.83;;;8.40;99.90;;;;;;5039116;28;20033;-89
2024/01/22 01:47:06;;;;;;;41.67;38.67;;;8.50;99.90;;;;;;5050363;28;20413;-90
2024/01/22 01:49:31;;;;;;;19.60;18.00;;;8.50;99.90;;;;;;5050864;28;20033;-92
2024/01/22 01:51:57;;;;;;;25.25;23.45;;;8.50;99.90;;;;;;5029846;28;20052;-93
2024/01/22 01:54:28;;;;;;;24.05;22.23;;;8.60;99.90;;;;;;5049892;28;20076;-90
2024/01/22 01:56:54;;;;;;;116.72;56.38;;;8.60;99.90;;;;;;5032554;28;20087;-91
2024/01/22 01:59:20;;;;;;;55.72;51.25;;;8.60;99.90;;;;;;5053565;28;20049;-93
2024/01/22 02:01:46;;;;;;;44.67;40.55;;;8.60;99.90;;;;;;5052126;28;20080;-93
2024/01/22 02:04:12;;;;;;;22.20;20.45;;;8.70;99.90;;;;;;5038028;28;20041;-94
2024/01/22 02:06:41;;;;;;;27.98;25.95;;;8.60;99.90;;;;;;5021507;28;20519;-92
2024/01/22 02:09:07;;;;;;;23.15;21.02;;;8.60;99.90;;;;;;5050141;28;20045;-93
2024/01/22 02:11:32;;;;;;;22.10;20.50;;;8.70;99.90;;;;;;5018619;28;20033;-93
2024/01/22 02:13:58;;;;;;;35.08;32.28;;;8.70;99.90;;;;;;5018230;28;20087;-90
2024/01/22 02:16:24;;;;;;;31.80;28.92;;;8.60;99.90;;;;;;5034033;28;20515;-94
2024/01/22 02:18:49;;;;;;;20.52;18.80;;;8.70;99.90;;;;;;5011993;28;20408;-93
2024/01/22 02:21:15;;;;;;;21.65;19.77;;;8.70;99.90;;;;;;5030187;28;20425;-92
2024/01/22 02:23:41;;;;;;;58.65;52.58;;;8.70;99.90;;;;;;5050822;28;20064;-86
2024/01/22 02:26:07;;;;;;;22.08;19.77;;;8.70;99.90;;;;;;5018855;28;20055;-91
2024/01/22 02:28:32;;;;;;;35.88;32.92;;;8.70;99.90;;;;;;5040127;28;20036;-91
2024/01/22 02:30:59;;;;;;;151.68;113.20;;;8.70;99.90;;;;;;5035289;28;20044;-88
2024/01/22 02:33:25;;;;;;;29.55;26.92;;;8.80;99.90;;;;;;5069860;28;20476;-92
2024/01/22 02:35:50;;;;;;;41.78;37.67;;;8.80;99.90;;;;;;5045262;28;20040;-86
2024/01/22 02:38:16;;;;;;;50.10;45.83;;;8.80;99.90;;;;;;5029911;28;20079;-88
2024/01/22 02:40:42;;;;;;;27.30;24.95;;;8.90;99.90;;;;;;5054102;28;20037;-93
2024/01/22 02:43:08;;;;;;;35.13;32.47;;;8.90;99.90;;;;;;5035032;28;20684;-88
2024/01/22 02:45:33;;;;;;;61.20;55.45;;;8.90;99.90;;;;;;5029276;28;20044;-90
2024/01/22 02:47:59;;;;;;;23.85;22.02;;;8.90;99.90;;;;;;5046758;28;20416;-93
2024/01/22 02:50:24;;;;;;;27.00;25.10;;;9.00;99.90;;;;;;5055858;28;20135;-93
2024/01/22 02:52:50;;;;;;;202.32;82.47;;;9.00;99.90;;;;;;5070508;28;20438;-89
2024/01/22 02:55:16;;;;;;;35.88;33.05;;;9.00;99.90;;;;;;5052458;28;20153;-91
2024/01/22 02:57:42;;;;;;;18.27;16.80;;;9.00;99.90;;;;;;5047920;28;20040;-89
2024/01/22 03:00:08;;;;;;;19.05;17.35;;;9.00;99.90;;;;;;5068987;28;20087;-87
2024/01/22 03:02:33;;;;;;;48.97;44.10;;;9.00;99.90;;;;;;5052866;28;21143;-90
2024/01/22 03:04:59;;;;;;;35.28;32.53;;;8.90;99.90;;;;;;5049859;28;20036;-94
2024/01/22 03:07:25;;;;;;;74.90;50.60;;;9.00;99.90;;;;;;5068597;28;20428;-89
2024/01/22 03:09:50;;;;;;;56.20;45.30;;;9.00;99.90;;;;;;5034827;28;20041;-92
2024/01/22 03:12:16;;;;;;;70.43;56.97;;;8.90;99.90;;;;;;5051059;28;20041;-88
2024/01/22 03:14:42;;;;;;;20.08;18.23;;;9.00;99.90;;;;;;5035085;28;20051;-92
2024/01/22 03:17:09;;;;;;;24.20;22.25;;;8.90;99.90;;;;;;5035130;28;20045;-89
2024/01/22 03:19:36;;;;;;;26.75;24.33;;;9.00;99.90;;;;;;5047626;28;20064;-87
2024/01/22 03:22:02;;;;;;;54.42;49.40;;;8.90;99.90;;;;;;5053790;28;20493;-88
2024/01/22 03:24:28;;;;;;;17.73;16.05;;;8.90;99.90;;;;;;5054109;28;20357;-91
2024/01/22 03:26:53;;;;;;;18.13;16.55;;;8.90;99.90;;;;;;5034807;28;20052;-88
2024/01/22 03:29:19;;;;;;;28.65;26.30;;;8.90;99.90;;;;;;5051401;28;20041;-89
2024/01/22 03:31:45;;;;;;;69.95;63.55;;;8.90;99.90;;;;;;5038407;28;20037;-88
2024/01/22 03:34:10;;;;;;;21.25;19.45;;;8.90;99.90;;;;;;5031378;28;20499;-88
2024/01/22 03:36:37;;;;;;;21.90;19.92;;;8.90;99.90;;;;;;5052348;28;20602;-90
2024/01/22 03:39:03;;;;;;;18.15;16.73;;;8.90;99.90;;;;;;5072514;28;20137;-89
2024/01/22 03:41:29;;;;;;;20.50;18.80;;;8.90;99.90;;;;;;5034117;28;20594;-90
2024/01/22 03:43:54;;;;;;;18.02;16.40;;;8.90;99.90;;;;;;5053236;28;20115;-85
2024/01/22 03:46:20;;;;;;;27.52;25.08;;;8.90;99.90;;;;;;5031952;28;20089;-91
2024/01/22 03:48:46;;;;;;;36.15;33.67;;;8.90;99.90;;;;;;5029634;28;20037;-87
2024/01/22 03:51:11;;;;;;;18.95;17.30;;;8.90;99.90;;;;;;5044707;28;20400;-90
2024/01/22 03:53:37;;;;;;;27.50;25.35;;;8.90;99.90;;;;;;5044656;28;20041;-86
2024/01/22 03:56:05;;;;;;;17.27;15.77;;;8.90;99.90;;;;;;5032339;28;20576;-88
2024/01/22 03:58:31;;;;;;;17.80;16.23;;;8.90;99.90;;;;;;5051460;28;20402;-88
2024/01/22 04:00:57;;;;;;;17.40;15.82;;;8.90;99.90;;;;;;5046049;28;20041;-88
2024/01/22 04:03:23;;;;;;;67.13;35.15;;;9.00;99.90;;;;;;5071387;28;20033;-92
2024/01/22 04:05:48;;;;;;;38.30;30.50;;;9.00;99.90;;;;;;5031912;28;20041;-86
2024/01/22 04:08:14;;;;;;;26.05;23.38;;;9.00;99.90;;;;;;5046331;28;20063;-88
2024/01/22 04:10:39;;;;;;;18.20;16.85;;;9.00;99.90;;;;;;5043746;28;20198;-93
2024/01/22 04:13:05;;;;;;;18.15;16.60;;;9.00;99.90;;;;;;5043052;28;20409;-87
2024/01/22 04:15:31;;;;;;;17.55;16.25;;;9.00;99.90;;;;;;5051302;28;20503;-89
2024/01/22 04:17:57;;;;;;;18.35;16.75;;;9.00;99.90;;;;;;5032289;28;20048;-89
2024/01/22 04:20:23;;;;;;;16.83;15.30;;;9.10;99.90;;;;;;5051002;28;20433;-91
2024/01/22 04:22:51;;;;;;;18.27;16.58;;;9.10;99.90;;;;;;5051912;28;20118;-88
2024/01/22 04:25:17;;;;;;;18.10;16.25;;;9.10;99.90;;;;;;5054139;28;20032;-90
2024/01/22 04:27:45;;;;;;;21.05;18.92;;;9.20;99.90;;;;;;5028029;28;20477;-90
2024/01/22 04:30:14;;;;;;;17.00;15.60;;;9.20;99.90;;;;;;5051666;28;20102;-91
2024/01/22 04:32:40;;;;;;;17.00;15.70;;;9.20;99.90;;;;;;5068021;28;20041;-90
2024/01/22 04:35:06;;;;;;;17.23;15.80;;;9.30;99.90;;;;;;5054066;28;20111;-88
2024/01/22 04:37:31;;;;;;;19.35;17.80;;;9.30;99.90;;;;;;5037595;28;20481;-89
2024/01/22 04:40:11;;;;;;;203.63;59.45;;;9.30;99.90;;;;;;5053788;28;20573;-86
2024/01/22 04:42:37;;;;;;;18.33;16.92;;;9.30;99.90;;;;;;5041117;28;20408;-89
2024/01/22 04:45:03;;;;;;;20.75;19.23;;;9.30;99.90;;;;;;5048073;28;20047;-92
2024/01/22 04:47:28;;;;;;;21.67;19.98;;;9.40;99.90;;;;;;5051883;28;20041;-93
2024/01/22 04:49:54;;;;;;;18.25;16.83;;;9.40;99.90;;;;;;5032177;28;20038;-89
2024/01/22 04:52:21;;;;;;;16.20;15.00;;;9.40;99.90;;;;;;5048020;28;20040;-87
2024/01/22 04:54:47;;;;;;;18.25;16.75;;;9.50;99.90;;;;;;5064883;28;20037;-92
2024/01/22 04:57:13;;;;;;;15.05;13.95;;;9.50;99.90;;;;;;5052497;28;20044;-90
2024/01/22 04:59:39;;;;;;;31.58;28.27;;;9.60;99.90;;;;;;5043404;28;20041;-88
2024/01/22 05:02:05;;;;;;;24.50;22.50;;;9.60;99.90;;;;;;5052541;28;20193;-91
2024/01/22 05:04:30;;;;;;;16.08;14.88;;;9.60;99.90;;;;;;5034189;28;20047;-93
2024/01/22 05:06:56;;;;;;;18.77;17.30;;;9.60;99.90;;;;;;5030883;28;20049;-92
2024/01/22 05:09:21;;;;;;;17.30;16.00;;;9.70;99.90;;;;;;5035763;28;20507;-91
2024/01/22 05:11:47;;;;;;;39.03;36.20;;;9.70;99.90;;;;;;5030277;28;20041;-93
2024/01/22 05:14:13;;;;;;;79.05;71.82;;;9.90;99.90;;;;;;5052096;28;20153;-92
2024/01/22 05:16:38;;;;;;;16.00;14.70;;;9.90;99.90;;;;;;5069949;28;20041;-90
2024/01/22 05:19:04;;;;;;;23.02;21.30;;;10.00;99.90;;;;;;5030054;28;20064;-89
2024/01/22 05:21:30;;;;;;;21.08;19.42;;;10.00;99.90;;;;;;5029824;28;20074;-90
2024/01/22 05:23:57;;;;;;;220.18;119.53;;;10.10;99.90;;;;;;5028222;28;20052;-88
2024/01/22 05:26:22;;;;;;;17.10;15.90;;;10.20;99.90;;;;;;5045576;28;20045;-90
2024/01/22 05:28:48;;;;;;;15.85;14.75;;;10.30;99.90;;;;;;5051017;28;20041;-93
2024/01/22 05:31:16;;;;;;;36.05;33.53;;;10.30;99.90;;;;;;5034256;28;20051;-89
2024/01/22 05:33:44;;;;;;;283.73;124.95;;;10.30;99.90;;;;;;5048004;28;20055;-89
2024/01/22 05:36:10;;;;;;;14.38;13.38;;;10.50;99.90;;;;;;5028096;28;20140;-90
2024/01/22 05:38:41;;;;;;;17.17;16.17;;;10.50;99.90;;;;;;5052207;28;20119;-91
2024/01/22 05:41:06;;;;;;;17.75;16.50;;;10.60;99.90;;;;;;5043393;28;20094;-90
2024/01/22 05:43:32;;;;;;;16.05;14.85;;;10.60;99.90;;;;;;5024807;28;20045;-89
2024/01/22 05:45:58;;;;;;;18.33;17.15;;;10.70;99.90;;;;;;5069804;28;20040;-90
2024/01/22 05:48:23;;;;;;;304.38;151.38;;;10.70;99.90;;;;;;5045025;28;20124;-91
2024/01/22 05:50:49;;;;;;;361.15;170.85;;;10.70;99.90;;;;;;5051836;28;20473;-90
2024/01/22 05:53:15;;;;;;;19.20;17.83;;;10.80;99.90;;;;;;5024583;28;20098;-90
2024/01/22 05:55:41;;;;;;;14.52;13.30;;;10.80;99.90;;;;;;5033202;28;20523;-89
2024/01/22 05:58:07;;;;;;;14.75;13.57;;;10.80;99.90;;;;;;5029426;28;20040;-89
2024/01/22 06:00:33;;;;;;;16.65;15.45;;;10.80;99.90;;;;;;5050150;28;20044;-90
2024/01/22 06:02:58;;;;;;;18.08;16.75;;;10.90;99.90;;;;;;5033448;28;20067;-90
2024/01/22 06:05:24;;;;;;;30.42;28.38;;;10.90;99.90;;;;;;5030270;28;20502;-87
2024/01/22 06:07:49;;;;;;;206.25;79.97;;;10.90;99.90;;;;;;5032477;28;20044;-87
2024/01/22 06:10:15;;;;;;;436.90;293.10;;;10.90;99.90;;;;;;5047255;28;20036;-88
2024/01/22 06:12:41;;;;;;;15.90;14.60;;;11.00;99.90;;;;;;5033360;28;20504;-87
2024/01/22 06:15:07;;;;;;;16.17;14.77;;;11.00;99.90;;;;;;5050152;28;20064;-88
2024/01/22 06:17:33;;;;;;;14.75;13.55;;;10.90;99.90;;;;;;5027803;28;20917;-88
2024/01/22 06:20:00;;;;;;;15.38;13.23;;;10.90;99.90;;;;;;5043836;28;20131;-88
2024/01/22 06:22:26;;;;;;;14.43;13.23;;;10.90;99.90;;;;;;5041879;28;20052;-87
2024/01/22 06:24:52;;;;;;;16.67;15.35;;;10.80;99.90;;;;;;5024254;28;20049;-86
2024/01/22 06:27:17;;;;;;;14.23;13.10;;;10.80;99.90;;;;;;5046615;28;20037;-87
2024/01/22 06:29:43;;;;;;;25.27;23.60;;;10.80;99.90;;;;;;5029943;28;20087;-88
2024/01/22 06:32:09;;;;;;;14.73;13.50;;;10.80;99.90;;;;;;5048087;28;20032;-88
2024/01/22 06:34:38;;;;;;;14.27;13.00;;;10.80;99.90;;;;;;5047681;28;20461;-87
2024/01/22 06:37:04;;;;;;;14.18;12.88;;;10.80;99.90;;;;;;5032184;28;20408;-88
2024/01/22 06:39:30;;;;;;;19.10;17.48;;;10.80;99.90;;;;;;5032018;28;20040;-87
2024/01/22 06:41:56;;;;;;;53.95;48.53;;;10.70;99.90;;;;;;5046620;28;20094;-86
2024/01/22 06:44:22;;;;;;;13.75;12.35;;;10.70;99.90;;;;;;5048765;28;20118;-84
2024/01/22 06:46:47;;;;;;;26.05;23.77;;;10.70;99.90;;;;;;5025549;28;20451;-87
2024/01/22 06:49:13;;;;;;;21.40;18.70;;;10.70;99.90;;;;;;5039808;28;20040;-87
2024/01/22 06:51:39;;;;;;;15.90;14.07;;;10.70;99.90;;;;;;5050936;28;20094;-85
2024/01/22 06:54:04;;;;;;;16.65;14.82;;;10.70;99.90;;;;;;5044830;28;20036;-84
2024/01/22 06:56:31;;;;;;;17.83;14.13;;;10.60;99.90;;;;;;5027320;28;20439;-85
2024/01/22 06:58:57;;;;;;;60.13;53.90;;;10.60;99.90;;;;;;5027342;28;20048;-85
2024/01/22 07:01:22;;;;;;;17.65;15.38;;;10.60;99.90;;;;;;5035559;28;20051;-85
2024/01/22 07:03:48;;;;;;;90.40;83.15;;;10.60;99.90;;;;;;5033735;28;20082;-84
2024/01/22 07:06:14;;;;;;;20.92;16.73;;;10.60;99.90;;;;;;5049891;28;20044;-84
2024/01/22 07:08:39;;;;;;;20.02;15.88;;;10.60;99.90;;;;;;5050340;28;20370;-86
2024/01/22 07:11:05;;;;;;;18.10;16.27;;;10.50;99.90;;;;;;5034137;28;20090;-83
2024/01/22 07:13:32;;;;;;;133.57;53.40;;;10.60;99.90;;;;;;5045727;28;20124;-83
2024/01/22 07:15:58;;;;;;;61.65;56.28;;;10.50;99.90;;;;;;5066073;28;20080;-82
2024/01/22 07:18:24;;;;;;;169.10;101.03;;;10.50;99.90;;;;;;4989164;28;1207786;-83
2024/01/22 07:20:50;;;;;;;32.25;17.63;;;10.60;99.90;;;;;;5052308;28;20455;-82
2024/01/22 07:23:16;;;;;;;53.28;48.58;;;10.60;99.90;;;;;;5052685;28;20040;-82
2024/01/22 07:25:42;;;;;;;49.97;44.70;;;10.60;99.90;;;;;;5051383;28;20396;-83
2024/01/22 07:28:07;;;;;;;28.20;22.60;;;10.50;99.90;;;;;;5064454;28;20124;-82
2024/01/22 07:30:36;;;;;;;24.30;16.63;;;10.60;99.90;;;;;;5051664;28;20497;-82
2024/01/22 07:33:03;;;;;;;28.10;16.83;;;10.60;99.90;;;;;;5036780;28;20045;-85
2024/01/22 07:35:29;;;;;;;84.90;70.47;;;10.50;99.90;;;;;;5053498;28;20039;-82
2024/01/22 07:37:55;;;;;;;31.25;23.77;;;10.60;99.90;;;;;;5052515;28;20118;-81
2024/01/22 07:40:21;;;;;;;31.58;19.13;;;10.60;99.90;;;;;;5052391;28;20048;-81
2024/01/22 07:42:47;;;;;;;25.42;22.25;;;10.60;99.90;;;;;;5032561;28;20063;-81
2024/01/22 07:45:13;;;;;;;26.17;20.15;;;10.60;99.90;;;;;;5051630;28;20142;-82
2024/01/22 07:47:38;;;;;;;35.50;14.63;;;10.60;99.90;;;;;;5035317;28;20557;-82
2024/01/22 07:50:10;;;;;;;29.67;16.65;;;10.60;99.90;;;;;;5070271;28;20465;-81
2024/01/22 07:52:37;;;;;;;33.28;16.10;;;10.60;99.90;;;;;;5052098;28;20137;-82
2024/01/22 07:55:03;;;;;;;53.28;46.03;;;10.60;99.90;;;;;;5035825;28;20050;-82
2024/01/22 07:57:29;;;;;;;35.60;19.23;;;10.50;99.90;;;;;;5048514;28;20036;-82
2024/01/22 07:59:55;;;;;;;33.05;19.00;;;10.40;99.90;;;;;;5028916;28;20548;-81
2024/01/22 08:02:21;;;;;;;39.33;18.13;;;10.30;99.90;;;;;;5064368;28;20116;-82
2024/01/22 08:04:46;;;;;;;29.90;19.13;;;10.20;99.90;;;;;;5051049;28;20151;-83
2024/01/22 08:07:12;;;;;;;44.42;29.05;;;10.20;99.90;;;;;;5048565;28;20040;-82
2024/01/22 08:09:38;;;;;;;34.53;20.33;;;10.20;99.90;;;;;;5052345;28;20578;-82
2024/01/22 08:12:04;;;;;;;36.35;21.58;;;10.20;99.90;;;;;;5029744;28;20041;-83
2024/01/22 08:14:33;;;;;;;114.03;94.85;;;10.10;99.90;;;;;;5053131;28;20059;-82
2024/01/22 08:17:01;;;;;;;37.95;25.85;;;10.10;99.90;;;;;;5046845;28;20044;-82
2024/01/22 08:19:27;;;;;;;51.85;41.95;;;10.00;99.90;;;;;;5062681;28;20615;-80
2024/01/22 08:21:53;;;;;;;47.78;43.45;;;10.00;99.90;;;;;;5052302;28;20051;-81
2024/01/22 08:24:19;;;;;;;70.05;59.63;;;9.90;99.90;;;;;;5046897;28;20037;-82
2024/01/22 08:26:45;;;;;;;45.15;29.35;;;9.80;99.90;;;;;;5041656;28;20099;-82
2024/01/22 08:29:11;;;;;;;47.20;34.42;;;9.80;99.90;;;;;;5028442;28;20036;-81
2024/01/22 08:31:38;;;;;;;36.42;19.73;;;9.70;99.90;;;;;;5047374;28;20032;-83
2024/01/22 08:34:04;;;;;;;37.22;19.05;;;9.60;99.90;;;;;;5064799;28;20036;-82
2024/01/22 08:36:29;;;;;;;35.83;28.50;;;9.60;99.90;;;;;;5048313;28;20366;-82
2024/01/22 08:38:55;;;;;;;35.50;28.15;;;9.60;99.90;;;;;;5026112;28;20033;-82
2024/01/22 08:41:26;;;;;;;45.42;34.75;;;9.50;99.90;;;;;;5047694;28;20045;-82
2024/01/22 08:43:53;;;;;;;36.38;18.13;;;9.50;99.90;;;;;;5047954;28;20412;-82
2024/01/22 08:46:21;;;;;;;34.08;17.95;;;9.50;99.90;;;;;;5038565;28;20056;-82
2024/01/22 08:48:48;;;;;;;37.40;18.55;;;9.50;99.90;;;;;;5035217;28;20051;-81
2024/01/22 08:51:13;;;;;;;40.03;19.60;;;9.40;99.90;;;;;;5051253;28;20378;-82
2024/01/22 08:53:39;;;;;;;122.72;72.93;;;9.50;99.90;;;;;;5035164;28;20119;-82
2024/01/22 08:56:05;;;;;;;51.65;22.95;;;9.50;99.90;;;;;;5050447;28;20127;-81
2024/01/22 08:58:31;;;;;;;62.08;51.17;;;9.50;99.90;;;;;;5047457;28;20107;-81
2024/01/22 09:00:57;;;;;;;52.33;23.60;;;9.60;99.90;;;;;;5050988;28;20079;-82
2024/01/22 09:03:24;;;;;;;51.40;30.95;;;9.60;99.90;;;;;;5034906;28;20044;-82
2024/01/22 09:05:50;;;;;;;54.25;20.70;;;9.60;99.90;;;;;;5034543;28;20118;-82
2024/01/22 09:08:16;;;;;;;48.95;19.88;;;9.70;99.90;;;;;;5028022;28;20037;-82
2024/01/22 09:10:42;;;;;;;44.38;18.40;;;9.70;99.90;;;;;;5050880;28;20044;-81
2024/01/22 09:13:09;;;;;;;47.53;24.83;;;9.80;99.90;;;;;;5032717;28;20502;-82
2024/01/22 09:15:35;;;;;;;42.50;19.17;;;9.80;99.90;;;;;;5050687;28;20033;-82
2024/01/22 09:18:00;;;;;;;64.18;43.90;;;9.80;99.90;;;;;;5049670;28;20044;-81
2024/01/22 09:20:26;;;;;;;55.75;18.15;;;9.80;99.90;;;;;;5032551;28;20091;-81
2024/01/22 09:22:52;;;;;;;64.05;42.83;;;9.70;99.90;;;;;;5066994;28;20095;-82
2024/01/22 09:25:19;;;;;;;42.50;16.63;;;9.70;99.90;;;;;;5048946;28;20173;-82
2024/01/22 09:27:48;;;;;;;53.80;20.08;;;9.70;99.90;;;;;;5024544;28;20036;-82
2024/01/22 09:30:15;;;;;;;51.95;46.45;;;9.70;99.90;;;;;;5048625;28;20057;-81
2024/01/22 09:32:40;;;;;;;42.38;15.77;;;9.80;99.90;;;;;;5033820;28;20370;-81
2024/01/22 09:35:06;;;;;;;47.97;16.83;;;9.90;99.90;;;;;;5033736;28;20051;-82
2024/01/22 09:37:33;;;;;;;42.63;21.10;;;10.00;99.90;;;;;;5050290;28;20044;-82
2024/01/22 09:39:58;;;;;;;39.78;18.83;;;10.00;99.90;;;;;;5046006;28;20355;-81
2024/01/22 09:42:26;;;;;;;42.10;20.30;;;10.00;99.90;;;;;;5025951;28;20045;-81
2024/01/22 09:44:53;;;;;;;40.47;24.55;;;10.10;99.90;;;;;;5064001;28;20073;-82
2024/01/22 09:47:19;;;;;;;45.40;15.63;;;10.10;99.90;;;;;;5046398;28;20046;-82
2024/01/22 09:49:46;;;;;;;39.70;29.65;;;10.10;99.90;;;;;;5044889;28;20037;-82
2024/01/22 09:52:16;;;;;;;44.55;14.70;;;10.20;99.90;;;;;;5043220;28;20514;-82
2024/01/22 09:54:43;;;;;;;32.97;14.10;;;10.20;99.90;;;;;;5045475;28;20051;-82
2024/01/22 09:57:17;;;;;;;35.30;20.33;;;10.20;99.90;;;;;;5048862;28;20052;-82
2024/01/22 09:59:43;;;;;;;;;;;10.20;99.90;;;;;;5045641;28;20048;-81
2024/01/22 10:02:14;;;;;;;31.02;15.27;;;10.20;99.90;;;;;;5049037;28;19927;-82
2024/01/22 10:04:39;;;;;;;91.30;83.47;;;10.10;99.90;;;;;;5048000;28;20051;-81
2024/01/22 10:07:07;;;;;;;43.30;22.02;;;10.10;99.90;;;;;;5031948;28;20040;-82
2024/01/22 10:09:33;;;;;;;49.53;41.20;;;10.10;99.90;;;;;;5043862;28;20043;-83
2024/01/22 10:11:58;;;;;;;30.83;19.63;;;10.10;99.90;;;;;;5044332;28;20047;-82
2024/01/22 10:14:31;;;;;;;31.70;12.85;;;10.20;99.90;;;;;;5068138;28;20040;-82
2024/01/22 10:17:13;;;;;;;30.70;12.98;;;10.20;99.90;;;;;;5022476;28;20048;-81
2024/01/22 10:19:39;;;;;;;41.80;28.17;;;10.20;99.90;;;;;;5043860;28;20178;-83
2024/01/22 10:22:05;;;;;;;128.90;69.97;;;10.30;99.90;;;;;;5046877;28;20123;-82
2024/01/22 10:24:30;;;;;;;27.08;15.45;;;10.30;99.90;;;;;;5049057;28;20056;-82
2024/01/22 10:27:15;;;;;;;113.55;48.75;;;10.30;99.90;;;;;;5048974;28;20048;-82
2024/01/22 10:29:44;;;;;;;28.38;11.27;;;10.30;99.90;;;;;;5046798;28;20451;-81
2024/01/22 10:32:10;;;;;;;37.88;29.33;;;10.30;99.90;;;;;;5048128;28;20044;-81
2024/01/22 10:34:45;;;;;;;26.45;12.00;;;10.30;99.90;;;;;;5030112;28;20496;-81
2024/01/22 10:37:12;;;;;;;28.80;11.65;;;10.30;99.90;;;;;;5033219;28;20608;-82
2024/01/22 10:39:40;;;;;;;29.23;10.68;;;10.30;99.90;;;;;;5043801;28;20041;-82
2024/01/22 10:42:14;;;;;;;20.90;9.68;;;10.30;99.90;;;;;;5041144;28;20072;-81
2024/01/22 10:44:44;;;;;;;25.63;9.70;;;10.30;99.90;;;;;;5062444;28;20072;-81
2024/01/22 10:47:15;;;;;;;31.25;11.50;;;10.30;99.90;;;;;;5027568;28;20051;-81
2024/01/22 10:49:44;;;;;;;26.52;10.13;;;10.40;99.90;;;;;;5040262;28;20069;-81
2024/01/22 10:52:10;;;;;;;25.60;10.23;;;10.40;99.90;;;;;;5046018;28;20075;-82
2024/01/22 10:54:38;;;;;;;21.52;9.57;;;10.50;99.90;;;;;;5025815;28;20493;-82
2024/01/22 10:57:05;;;;;;;24.85;9.82;;;10.60;99.90;;;;;;5031553;28;20067;-81
2024/01/22 10:59:38;;;;;;;22.13;9.93;;;10.70;99.90;;;;;;5066289;28;20395;-80
2024/01/22 11:02:15;;;;;;;24.38;9.68;;;10.80;99.90;;;;;;5031824;28;20151;-81
2024/01/22 11:04:45;;;;;;;17.58;9.43;;;10.90;99.90;;;;;;5033215;28;20124;-81
2024/01/22 11:07:12;;;;;;;27.13;10.65;;;11.00;99.90;;;;;;5031461;28;20036;-82
2024/01/22 11:09:39;;;;;;;25.02;9.60;;;11.00;99.90;;;;;;5033120;28;20046;-80
2024/01/22 11:12:11;;;;;;;108.80;97.35;;;11.10;99.90;;;;;;5025962;28;20143;-82
2024/01/22 11:14:38;;;;;;;22.73;9.55;;;11.10;99.90;;;;;;5048796;28;20060;-81
2024/01/22 11:17:09;;;;;;;23.63;9.82;;;11.10;99.90;;;;;;5048568;28;20048;-80
2024/01/22 11:19:35;;;;;;;76.60;59.35;;;11.00;99.90;;;;;;5053583;28;20059;-81
2024/01/22 11:22:12;;;;;;;22.50;18.13;;;11.00;99.90;;;;;;5030228;28;20451;-80
2024/01/22 11:24:38;;;;;;;27.48;10.20;;;11.00;99.90;;;;;;5036952;28;20091;-80
2024/01/22 11:27:05;;;;;;;21.40;8.90;;;11.00;99.90;;;;;;5037658;28;20182;-81
2024/01/22 11:29:32;;;;;;;21.77;8.43;;;11.00;99.90;;;;;;5051066;28;20555;-81
2024/01/22 11:32:26;;;;;;;74.45;40.95;;;10.90;99.90;;;;;;5047116;28;20036;-81
2024/01/22 11:35:00;;;;;;;24.90;12.30;;;11.00;99.90;;;;;;5061830;28;20052;-81
2024/01/22 11:37:34;;;;;;;19.15;9.48;;;11.00;99.90;;;;;;5022918;28;20044;-82
2024/01/22 11:40:00;;;;;;;22.17;9.88;;;11.00;99.90;;;;;;5046378;28;20056;-81
2024/01/22 11:42:28;;;;;;;23.38;10.95;;;11.10;99.90;;;;;;5035240;28;20032;-81
2024/01/22 11:44:54;;;;;;;23.20;12.25;;;11.10;99.90;;;;;;5062591;28;20048;-81
2024/01/22 11:47:22;;;;;;;19.13;8.25;;;11.20;99.90;;;;;;5028289;28;20072;-80
2024/01/22 11:49:48;;;;;;;25.30;9.02;;;11.10;99.90;;;;;;5059179;28;20040;-82
2024/01/22 11:52:20;;;;;;;18.73;9.85;;;11.10;99.90;;;;;;5049854;28;20032;-82
2024/01/22 11:54:56;;;;;;;23.08;10.30;;;11.20;99.90;;;;;;5050171;28;20356;-81
2024/01/22 11:57:22;;;;;;;51.95;47.35;;;11.10;99.90;;;;;;5053875;28;20071;-81
2024/01/22 12:00:05;;;;;;;21.48;8.52;;;11.10;99.90;;;;;;5046562;28;20504;-81
2024/01/22 12:02:31;;;;;;;23.50;19.50;;;11.00;99.90;;;;;;5037791;28;20500;-81
2024/01/22 12:05:03;;;;;;;160.27;70.18;;;11.10;99.90;;;;;;5047397;28;20495;-81
2024/01/22 12:07:38;;;;;;;19.30;8.50;;;11.00;99.90;;;;;;5030680;28;20048;-82
2024/01/22 12:10:04;;;;;;;19.88;11.13;;;11.00;99.90;;;;;;5031021;28;20041;-82
2024/01/22 12:12:31;;;;;;;20.40;7.50;;;11.00;99.90;;;;;;5023004;28;20131;-82
2024/01/22 12:14:57;;;;;;;23.48;8.63;;;11.00;99.90;;;;;;5063356;28;20546;-82
2024/01/22 12:17:24;;;;;;;17.98;10.40;;;11.10;99.90;;;;;;5042256;28;20098;-83
2024/01/22 12:19:54;;;;;;;222.93;63.35;;;11.10;99.90;;;;;;5040964;28;20487;-82
2024/01/22 12:22:22;;;;;;;106.05;51.40;;;11.10;99.90;;;;;;5043271;28;20059;-81
2024/01/22 12:25:08;;;;;;;22.45;9.57;;;11.00;99.90;;;;;;5028256;28;20452;-82
2024/01/22 12:27:35;;;;;;;18.20;10.30;;;11.10;99.90;;;;;;5056242;28;20082;-83
2024/01/22 12:30:05;;;;;;;20.33;9.23;;;11.00;99.90;;;;;;5057704;28;20494;-82
2024/01/22 12:32:35;;;;;;;20.13;11.13;;;10.90;99.90;;;;;;5045736;28;20464;-81